Time;durP1;ratioP1;P1;durP2;ratioP2;P2;SDS_P1;SDS_P2;PMS_P1;PMS_P2;Temp;Humidity;BMP_temperature;BMP_pressure;BME280_temperature;BME280_humidity;BME280_pressure;Samples;Min_cycle;Max_cycle;Signal;HPM_P1;HPM_P2
2023/01/26 00:01:15;;;;;;;11.70;9.80;;;;;;;16.83;39.35;102449.50;5027871;28;20076;-55
2023/01/26 00:03:41;;;;;;;13.55;10.73;;;;;;;16.82;39.38;102450.47;5027769;28;20104;-55
2023/01/26 00:06:07;;;;;;;13.02;10.20;;;;;;;16.83;39.42;102451.34;5027868;28;20589;-56
2023/01/26 00:08:37;;;;;;;12.68;10.23;;;;;;;16.84;39.28;102447.66;5027678;28;20040;-54
2023/01/26 00:11:04;;;;;;;13.15;10.48;;;;;;;16.81;39.36;102445.22;5027762;28;20026;-53
2023/01/26 00:13:31;;;;;;;12.00;10.25;;;;;;;16.78;39.53;102438.25;5026869;28;20025;-55
2023/01/26 00:15:56;;;;;;;10.90;9.48;;;;;;;16.81;39.32;102438.00;5027456;28;20036;-52
2023/01/26 00:18:21;;;;;;;13.18;9.93;;;;;;;16.81;39.39;102431.78;5027499;28;20057;-54
2023/01/26 00:20:47;;;;;;;12.07;10.43;;;;;;;16.77;39.32;102435.66;5027379;28;20018;-55
2023/01/26 00:23:12;;;;;;;13.23;10.52;;;;;;;16.80;39.36;102441.66;5026638;28;20044;-55
2023/01/26 00:25:39;;;;;;;11.13;9.55;;;;;;;16.79;39.34;102434.59;5027465;28;20030;-56
2023/01/26 00:28:04;;;;;;;13.32;10.98;;;;;;;16.73;39.42;102426.97;5027374;28;20041;-56
2023/01/26 00:30:29;;;;;;;12.13;10.63;;;;;;;16.78;39.33;102430.19;5027445;28;20018;-54
2023/01/26 00:32:56;;;;;;;12.95;10.60;;;;;;;16.79;39.38;102426.53;5009362;28;20033;-56
2023/01/26 00:35:22;;;;;;;13.13;10.82;;;;;;;16.78;39.38;102419.47;5027068;28;20056;-54
2023/01/26 00:37:47;;;;;;;12.70;10.05;;;;;;;16.78;39.42;102415.88;5027096;28;20061;-56
2023/01/26 00:40:12;;;;;;;12.73;10.55;;;;;;;16.77;39.19;102420.41;5026913;28;20032;-56
2023/01/26 00:42:38;;;;;;;13.25;10.48;;;;;;;16.77;39.28;102420.41;5026939;28;20026;-56
2023/01/26 00:45:04;;;;;;;12.98;10.63;;;;;;;16.76;39.31;102413.31;5026728;28;20061;-56
2023/01/26 00:47:30;;;;;;;12.40;10.82;;;;;;;16.77;39.38;102423.09;5026994;28;20056;-56
2023/01/26 00:49:55;;;;;;;11.50;9.20;;;;;;;16.76;39.43;102418.69;5026811;28;20022;-50
2023/01/26 00:52:20;;;;;;;12.15;10.38;;;;;;;16.76;39.49;102412.47;5027018;28;20108;-55
2023/01/26 00:54:45;;;;;;;13.15;10.63;;;;;;;16.75;39.43;102414.31;5026793;28;20442;-57
2023/01/26 00:57:11;;;;;;;12.40;10.38;;;;;;;16.75;39.48;102417.00;5026581;28;20026;-57
2023/01/26 00:59:36;;;;;;;12.25;10.23;;;;;;;16.76;39.35;102415.16;5026341;28;20045;-56
2023/01/26 01:02:01;;;;;;;13.05;10.88;;;;;;;16.74;39.36;102404.53;5026906;28;20040;-53
2023/01/26 01:04:29;;;;;;;11.93;10.52;;;;;;;16.74;39.40;102409.91;5026631;28;20105;-56
2023/01/26 01:06:55;;;;;;;13.48;11.10;;;;;;;16.73;39.43;102409.03;5026699;28;20058;-57
2023/01/26 01:09:20;;;;;;;12.68;10.85;;;;;;;16.73;39.37;102410.88;5026296;28;20076;-56
2023/01/26 01:11:46;;;;;;;13.57;10.32;;;;;;;16.71;39.34;102400.22;5008953;28;20029;-55
2023/01/26 01:14:12;;;;;;;13.55;10.80;;;;;;;16.72;39.47;102401.06;5026330;28;20017;-53
2023/01/26 01:16:38;;;;;;;14.15;11.43;;;;;;;16.72;39.37;102403.75;5026346;28;20086;-57
2023/01/26 01:19:03;;;;;;;13.68;11.50;;;;;;;16.71;39.35;102400.22;5025374;28;20021;-55
2023/01/26 01:21:30;;;;;;;13.45;11.13;;;;;;;16.71;39.38;102394.00;5026406;28;20021;-57
2023/01/26 01:23:56;;;;;;;14.35;11.55;;;;;;;16.72;39.33;102398.38;5026072;28;20038;-57
2023/01/26 01:26:21;;;;;;;13.85;10.73;;;;;;;16.71;39.35;102392.16;5026168;28;20030;-56
2023/01/26 01:28:46;;;;;;;12.52;10.32;;;;;;;16.70;39.33;102392.28;5008373;28;20681;-56
2023/01/26 01:31:14;;;;;;;14.55;11.50;;;;;;;16.66;39.47;102388.13;5026108;28;20018;-53
2023/01/26 01:33:39;;;;;;;14.18;10.75;;;;;;;16.70;39.39;102395.84;5025930;28;20025;-57
2023/01/26 01:36:10;;;;;;;12.57;10.73;;;;;;;16.63;39.31;102377.63;5025927;28;20025;-57
2023/01/26 01:38:36;;;;;;;12.85;9.98;;;;;;;16.69;39.55;102388.75;5026035;28;20085;-57
2023/01/26 01:41:01;;;;;;;12.80;10.55;;;;;;;16.67;39.45;102385.31;5025834;28;20041;-56
2023/01/26 01:43:27;;;;;;;11.77;9.90;;;;;;;16.68;39.58;102389.69;5025751;28;20018;-57
2023/01/26 01:45:53;;;;;;;13.30;10.93;;;;;;;16.68;39.47;102389.69;5025675;28;20034;-58
2023/01/26 01:48:26;;;;;;;14.60;12.23;;;;;;;16.68;39.47;102388.84;5026116;28;20022;-56
2023/01/26 01:50:54;;;;;;;12.95;10.50;;;;;;;16.68;39.34;102391.53;5025751;28;20081;-57
2023/01/26 01:53:25;;;;;;;12.75;10.93;;;;;;;16.68;39.36;102388.84;5008275;28;20104;-57
2023/01/26 01:55:53;;;;;;;12.65;10.80;;;;;;;16.66;39.35;102383.63;5025751;28;20026;-57
2023/01/26 01:58:18;;;;;;;13.55;10.43;;;;;;;16.68;39.45;102383.47;5008089;28;20491;-57
2023/01/26 02:00:44;;;;;;;12.88;10.75;;;;;;;16.67;39.42;102377.25;5025578;28;20030;-53
2023/01/26 02:03:19;;;;;;;13.80;11.07;;;;;;;16.67;39.36;102384.47;5025758;28;20060;-58
2023/01/26 02:06:05;;;;;;;13.68;11.27;;;;;;;16.66;39.41;102380.94;5025297;28;20053;-57
2023/01/26 02:08:54;;;;;;;14.93;11.90;;;;;;;16.66;39.50;102380.06;5024956;28;20030;-57
2023/01/26 02:11:32;;;;;;;;;;;;;;;16.65;39.48;102376.53;5015688;28;20038;-55
2023/01/26 02:13:59;;;;;;;13.63;10.90;;;;;;;16.64;39.45;102376.63;5007633;28;19910;-57
2023/01/26 02:16:25;;;;;;;12.30;10.45;;;;;;;16.64;39.38;102377.47;5024948;28;20099;-57
2023/01/26 02:18:50;;;;;;;12.52;10.38;;;;;;;16.62;39.52;102379.44;5025374;28;20034;-57
2023/01/26 02:21:18;;;;;;;13.82;10.63;;;;;;;16.55;39.41;102363.91;5000169;28;20014;-53
2023/01/26 02:24:06;;;;;;;12.63;10.30;;;;;;;16.64;39.58;102384.69;5005483;28;20022;-57
2023/01/26 02:26:34;;;;;;;13.10;10.70;;;;;;;16.62;39.55;102382.13;5001075;28;20056;-57
2023/01/26 02:29:00;;;;;;;12.50;10.40;;;;;;;16.59;39.56;102374.31;5024686;28;20033;-57
2023/01/26 02:31:26;;;;;;;13.52;10.57;;;;;;;16.62;39.63;102375.91;5024980;28;20065;-57
2023/01/26 02:33:51;;;;;;;12.02;10.00;;;;;;;16.62;39.65;102384.81;5024774;28;20030;-58
2023/01/26 02:36:22;;;;;;;12.80;10.80;;;;;;;16.62;39.24;102376.75;5024975;28;20101;-54
2023/01/26 02:38:59;;;;;;;12.27;10.57;;;;;;;16.56;39.53;102368.31;5025215;28;20459;-57
2023/01/26 02:44:10;;;;;;;12.15;10.25;;;;;;;16.62;39.41;102378.59;5009889;28;20056;-57
2023/01/26 02:46:35;;;;;;;12.10;10.40;;;;;;;16.60;39.65;102380.53;5007275;28;20026;-53
2023/01/26 02:51:44;;;;;;;12.23;10.20;;;;;;;16.61;39.22;102376.84;5025041;28;20069;-56
2023/01/26 02:55:21;;;;;;;11.38;10.18;;;;;;;16.60;39.62;102375.16;5025009;28;20386;-56
2023/01/26 02:56:55;;;;;;;12.40;10.32;;;;;;;16.57;39.59;102373.59;5024765;28;20037;-56
2023/01/26 02:59:20;;;;;;;12.68;11.15;;;;;;;16.59;39.45;102373.44;5025032;28;20032;-56
2023/01/26 03:01:48;;;;;;;11.00;9.23;;;;;;;16.59;39.52;102379.69;5024907;28;20032;-56
2023/01/26 03:04:13;;;;;;;13.55;10.90;;;;;;;16.59;39.52;102374.31;5024694;28;20089;-54
2023/01/26 03:06:38;;;;;;;12.55;10.73;;;;;;;16.59;39.64;102378.81;5024641;28;20030;-54
2023/01/26 03:09:03;;;;;;;11.55;10.23;;;;;;;16.49;39.56;102365.25;5024667;28;20497;-54
2023/01/26 03:11:40;;;;;;;11.32;9.30;;;;;;;16.59;39.64;102373.44;5024515;28;20026;-56
2023/01/26 03:14:06;;;;;;;11.98;9.68;;;;;;;16.58;39.46;102369.06;5024712;28;20026;-56
2023/01/26 03:16:31;;;;;;;11.70;9.82;;;;;;;16.58;39.74;102366.38;5006522;28;20075;-57
2023/01/26 03:29:40;;;;;;;11.50;9.68;;;;;;;16.55;39.60;102371.97;5028469;28;20090;-57
2023/01/26 03:32:05;;;;;;;12.68;10.48;;;;;;;16.56;39.60;102382.59;5028499;28;20049;-53
2023/01/26 03:34:31;;;;;;;11.43;9.40;;;;;;;16.55;39.60;102380.03;5028169;28;20030;-55
2023/01/26 03:36:56;;;;;;;10.95;9.65;;;;;;;16.56;39.44;102379.91;5028379;28;20045;-51
2023/01/26 03:58:30;;;;;;;11.00;9.52;;;;;;;16.53;39.46;102365.88;5027882;28;20041;-57
2023/01/26 04:00:56;;;;;;;9.88;8.88;;;;;;;16.45;39.70;102364.63;5027623;28;20026;-55
2023/01/26 04:08:49;;;;;;;8.93;7.93;;;;;;;16.54;39.62;102384.53;5027491;28;20037;-57
2023/01/26 04:11:15;;;;;;;10.00;8.57;;;;;;;16.53;39.58;102372.09;5009825;28;20034;-56
2023/01/26 04:21:52;;;;;;;10.02;8.50;;;;;;;16.52;39.21;102369.50;5027431;28;20044;-57
2023/01/26 04:24:20;;;;;;;9.68;8.68;;;;;;;16.52;39.67;102375.75;5027621;28;20018;-56
2023/01/26 04:26:45;;;;;;;10.10;8.43;;;;;;;16.52;39.69;102373.06;5027561;28;20089;-56
2023/01/26 04:29:13;;;;;;;10.23;9.00;;;;;;;16.52;39.66;102367.69;5027363;28;20296;-56
2023/01/26 04:31:39;;;;;;;9.90;8.73;;;;;;;16.52;39.70;102374.88;5026540;28;20037;-53
2023/01/26 04:34:06;;;;;;;10.10;9.02;;;;;;;16.51;39.45;102371.34;5027188;28;20052;-55
2023/01/26 04:36:32;;;;;;;10.00;8.00;;;;;;;16.52;39.67;102364.16;5026986;28;20048;-56
2023/01/26 04:38:57;;;;;;;9.40;8.13;;;;;;;16.48;39.80;102355.47;5027319;28;20034;-55
2023/01/26 04:41:22;;;;;;;9.98;8.30;;;;;;;16.50;39.55;102358.91;5026897;28;20050;-56
2023/01/26 04:43:48;;;;;;;8.90;8.00;;;;;;;16.50;39.67;102357.06;5027221;28;20446;-56
2023/01/26 04:46:14;;;;;;;9.52;8.35;;;;;;;16.46;39.66;102349.38;5027003;28;20022;-56
2023/01/26 04:48:39;;;;;;;8.82;7.68;;;;;;;16.52;39.68;102350.72;5027006;28;20040;-53
2023/01/26 04:51:07;;;;;;;10.00;8.27;;;;;;;16.51;39.62;102357.94;5026875;28;20130;-55
2023/01/26 04:53:33;;;;;;;8.52;7.72;;;;;;;16.50;39.64;102354.38;5009386;28;20034;-56
2023/01/26 04:55:58;;;;;;;9.60;8.18;;;;;;;16.51;39.56;102349.88;5026768;28;20030;-55
2023/01/26 04:58:24;;;;;;;9.18;8.07;;;;;;;16.50;39.63;102348.16;5026925;28;20037;-48
2023/01/26 05:00:56;;;;;;;8.23;7.38;;;;;;;16.48;39.63;102347.41;5026657;28;20032;-55
2023/01/26 05:03:22;;;;;;;8.57;7.68;;;;;;;16.50;39.43;102353.53;5026956;28;20489;-55
2023/01/26 05:05:49;;;;;;;8.00;7.20;;;;;;;16.50;39.61;102350.84;5026212;28;20038;-57
2023/01/26 05:08:16;;;;;;;8.27;7.40;;;;;;;16.50;39.71;102353.53;5026365;28;20120;-55
2023/01/26 05:10:41;;;;;;;7.30;6.43;;;;;;;16.49;39.68;102352.69;5008719;28;20105;-56
2023/01/26 05:13:07;;;;;;;7.72;6.93;;;;;;;16.48;39.72;102344.72;5026722;28;20026;-55
2023/01/26 05:15:33;;;;;;;8.60;7.20;;;;;;;16.50;39.83;102345.47;5026601;28;20046;-55
2023/01/26 05:18:01;;;;;;;8.07;7.20;;;;;;;16.50;39.64;102345.47;5026440;28;20038;-55
2023/01/26 05:20:26;;;;;;;9.27;7.85;;;;;;;16.46;39.77;102331.44;5026459;28;20096;-56
2023/01/26 05:22:52;;;;;;;8.35;7.50;;;;;;;16.49;39.69;102336.56;5026474;28;20041;-55
2023/01/26 05:25:18;;;;;;;8.48;7.43;;;;;;;16.50;39.76;102340.13;5026606;28;20022;-56
2023/01/26 05:27:43;;;;;;;8.65;7.55;;;;;;;16.49;39.74;102336.56;5026450;28;20052;-57
2023/01/26 05:30:10;;;;;;;8.10;7.30;;;;;;;16.49;39.85;102335.72;5026105;28;20080;-56
2023/01/26 05:32:35;;;;;;;7.25;6.55;;;;;;;16.49;39.74;102331.22;5020778;28;20064;-56
2023/01/26 05:35:02;;;;;;;9.07;7.32;;;;;;;16.49;39.70;102341.09;5022379;28;20022;-55
2023/01/26 05:37:28;;;;;;;8.73;7.82;;;;;;;16.49;39.72;102343.78;5017597;28;20033;-55
2023/01/26 05:39:54;;;;;;;7.95;7.00;;;;;;;16.49;39.74;102344.63;5019219;28;20026;-56
2023/01/26 05:42:19;;;;;;;7.80;6.97;;;;;;;16.50;39.76;102337.44;5011673;28;20085;-57
2023/01/26 05:44:45;;;;;;;7.93;7.13;;;;;;;16.49;39.59;102347.31;5024771;28;20030;-55
2023/01/26 05:47:10;;;;;;;7.70;6.90;;;;;;;16.48;39.71;102345.63;5025410;28;20030;-55
2023/01/26 05:49:41;;;;;;;7.53;6.72;;;;;;;16.47;39.59;102346.56;5022577;28;20026;-55
2023/01/26 05:52:11;;;;;;;9.07;7.53;;;;;;;16.48;39.72;102353.66;5020860;28;20030;-57
2023/01/26 05:54:37;;;;;;;8.30;7.40;;;;;;;16.47;39.80;102346.56;5012681;28;20034;-55
2023/01/26 05:57:02;;;;;;;8.27;7.13;;;;;;;16.49;39.97;102347.31;5017064;28;20030;-57
2023/01/26 05:59:28;;;;;;;7.10;6.40;;;;;;;16.50;39.98;102350.84;5019681;28;20029;-57
2023/01/26 06:01:54;;;;;;;6.80;6.10;;;;;;;16.50;39.90;102346.34;5017885;28;20022;-58
2023/01/26 06:04:20;;;;;;;7.90;6.82;;;;;;;16.51;39.89;102341.81;5022679;28;20469;-58
2023/01/26 06:06:45;;;;;;;10.27;7.13;;;;;;;16.52;40.03;102346.19;5010983;28;21991;-58
2023/01/26 06:09:10;;;;;;;8.38;7.00;;;;;;;16.52;39.97;102351.56;5022058;28;20032;-59
2023/01/26 06:11:36;;;;;;;8.45;7.30;;;;;;;16.54;40.21;102351.47;5017916;28;20041;-58
2023/01/26 06:14:01;;;;;;;7.97;6.68;;;;;;;16.54;40.02;102351.47;5019084;28;20029;-61
2023/01/26 06:16:26;;;;;;;7.32;6.53;;;;;;;16.52;40.36;102350.72;5018693;28;20029;-60
2023/01/26 06:18:51;;;;;;;8.05;6.85;;;;;;;16.55;40.51;102367.47;5010274;28;20022;-60
2023/01/26 06:21:17;;;;;;;7.28;6.50;;;;;;;16.48;40.63;102345.63;5021544;28;20412;-60
2023/01/26 06:23:42;;;;;;;6.95;6.25;;;;;;;16.58;40.87;102361.00;5002624;28;20065;-60
2023/01/26 06:26:08;;;;;;;7.82;6.50;;;;;;;16.59;40.87;102360.03;5018505;28;20411;-60
2023/01/26 06:28:34;;;;;;;7.53;6.75;;;;;;;16.61;41.04;102371.50;5017402;28;20112;-60
2023/01/26 06:31:05;;;;;;;7.72;6.93;;;;;;;16.62;40.87;102365.16;5019741;28;20026;-60
2023/01/26 06:33:35;;;;;;;7.03;6.05;;;;;;;16.58;41.06;102355.63;5020053;28;20021;-60
2023/01/26 06:36:04;;;;;;;8.85;6.80;;;;;;;16.62;40.96;102357.97;5020204;28;20033;-60
2023/01/26 06:38:30;;;;;;;7.47;6.20;;;;;;;16.64;41.06;102368.56;5011033;28;20053;-60
2023/01/26 06:41:01;;;;;;;7.07;6.40;;;;;;;16.57;41.29;102360.16;5021984;28;20053;-60
2023/01/26 06:43:33;;;;;;;7.22;6.53;;;;;;;16.63;41.22;102365.03;5020727;28;20014;-60
2023/01/26 06:45:59;;;;;;;7.20;6.28;;;;;;;16.65;41.28;102378.34;5018097;28;20089;-61
2023/01/26 06:48:26;;;;;;;7.40;6.60;;;;;;;16.66;41.41;102377.38;5021118;28;20029;-60
2023/01/26 06:50:51;;;;;;;7.00;5.72;;;;;;;16.67;41.31;102373.72;5016756;28;20609;-62
2023/01/26 06:53:26;;;;;;;6.32;5.72;;;;;;;16.66;41.08;102366.66;5021095;28;20554;-59
2023/01/26 06:55:51;;;;;;;7.55;6.55;;;;;;;16.65;41.09;102372.97;5019802;28;20038;-60
2023/01/26 06:58:16;;;;;;;6.47;5.72;;;;;;;16.65;41.09;102376.53;5023883;28;20033;-60
2023/01/26 07:00:42;;;;;;;7.30;6.60;;;;;;;16.66;41.14;102382.75;5023314;28;20061;-59
2023/01/26 07:03:09;;;;;;;9.25;6.43;;;;;;;16.63;41.24;102378.47;5024270;28;20038;-60
2023/01/26 07:05:34;;;;;;;6.72;5.85;;;;;;;16.66;41.25;102388.97;5004798;28;20042;-58
2023/01/26 07:08:01;;;;;;;6.32;5.45;;;;;;;16.65;41.30;102386.41;5021404;28;20042;-59
2023/01/26 07:10:26;;;;;;;6.95;5.90;;;;;;;16.59;41.12;102373.44;5020778;28;20042;-57
2023/01/26 07:12:51;;;;;;;10.13;5.97;;;;;;;16.66;41.19;102385.44;5024059;28;20026;-58
2023/01/26 07:15:17;;;;;;;7.03;6.32;;;;;;;16.67;41.48;102389.84;5021587;28;20038;-57
2023/01/26 07:17:42;;;;;;;6.93;5.43;;;;;;;16.66;41.59;102378.25;5023731;28;20378;-56
2023/01/26 07:20:08;;;;;;;6.38;5.78;;;;;;;16.64;41.30;102390.91;5024026;28;20026;-58
2023/01/26 07:22:34;;;;;;;6.57;5.82;;;;;;;16.66;41.47;102388.13;5021658;28;20084;-57
2023/01/26 07:24:59;;;;;;;6.28;5.60;;;;;;;16.66;41.54;102382.75;5024365;28;20034;-58
2023/01/26 07:27:24;;;;;;;7.78;6.22;;;;;;;16.65;41.42;102389.97;5024224;28;20030;-58
2023/01/26 07:29:50;;;;;;;7.70;6.13;;;;;;;16.66;41.65;102393.50;5023864;28;20021;-57
2023/01/26 07:32:16;;;;;;;7.90;6.15;;;;;;;16.66;41.55;102396.19;5023817;28;20043;-57
2023/01/26 07:34:41;;;;;;;6.63;5.35;;;;;;;16.66;41.55;102396.19;5023592;28;20049;-58
2023/01/26 07:37:06;;;;;;;7.47;6.32;;;;;;;16.64;41.56;102398.97;5023979;28;20492;-56
2023/01/26 07:39:31;;;;;;;6.40;5.80;;;;;;;16.65;41.49;102398.03;5023955;28;20064;-58
2023/01/26 07:41:57;;;;;;;6.63;5.80;;;;;;;16.66;41.47;102401.56;5023987;28;20050;-58
2023/01/26 07:44:22;;;;;;;6.85;5.97;;;;;;;16.67;41.21;102414.00;5023962;28;20057;-58
2023/01/26 07:46:47;;;;;;;6.30;5.60;;;;;;;16.67;41.61;102411.31;5024058;28;20060;-57
2023/01/26 07:49:12;;;;;;;6.03;5.35;;;;;;;16.66;41.49;102407.78;5023008;28;20104;-58
2023/01/26 07:51:40;;;;;;;6.40;5.60;;;;;;;16.65;41.48;102411.44;5023532;28;20034;-58
2023/01/26 07:54:06;;;;;;;6.53;5.40;;;;;;;16.66;41.38;102413.16;5023585;28;20116;-58
2023/01/26 07:56:32;;;;;;;6.35;5.30;;;;;;;16.67;41.52;102414.00;5006090;28;20049;-57
2023/01/26 07:58:57;;;;;;;6.28;5.40;;;;;;;16.66;41.53;102418.53;5022131;28;20026;-56
2023/01/26 08:01:23;;;;;;;6.03;5.30;;;;;;;16.67;41.47;102427.44;5023798;28;20040;-57
2023/01/26 08:03:50;;;;;;;6.32;5.70;;;;;;;16.71;41.36;102431.59;5023119;28;20405;-60
2023/01/26 08:06:17;;;;;;;6.28;5.40;;;;;;;16.75;41.18;102433.09;5024178;28;20029;-60
2023/01/26 08:08:43;;;;;;;6.68;5.03;;;;;;;16.80;41.22;102430.91;5022063;28;20037;-60
2023/01/26 08:11:09;;;;;;;7.35;5.60;;;;;;;16.83;41.16;102424.47;5006367;28;20034;-58
2023/01/26 08:13:35;;;;;;;6.00;5.40;;;;;;;16.85;40.77;102423.34;5024044;28;20029;-60
2023/01/26 08:16:11;;;;;;;6.03;5.43;;;;;;;16.89;40.77;102422.16;5021194;28;20029;-61
2023/01/26 08:18:37;;;;;;;6.50;5.35;;;;;;;16.90;40.75;102423.84;5023909;28;20701;-60
2023/01/26 08:21:03;;;;;;;7.85;5.40;;;;;;;16.88;40.67;102411.53;5022323;28;20474;-61
2023/01/26 08:23:29;;;;;;;6.15;5.38;;;;;;;16.90;40.56;102414.94;5023452;28;20021;-60
2023/01/26 08:25:54;;;;;;;6.68;5.88;;;;;;;16.90;40.69;102415.78;5018141;28;20029;-60
2023/01/26 08:28:19;;;;;;;6.75;5.97;;;;;;;16.90;40.61;102421.16;5026998;28;20026;-61
2023/01/26 08:30:45;;;;;;;8.20;5.97;;;;;;;16.89;40.43;102414.09;5010235;28;20034;-60
2023/01/26 08:33:10;;;;;;;6.65;5.85;;;;;;;16.89;40.61;102413.25;5021920;28;20064;-60
2023/01/26 08:35:35;;;;;;;7.03;5.93;;;;;;;16.90;40.33;102415.78;5015497;28;20033;-60
2023/01/26 08:38:01;;;;;;;8.85;6.35;;;;;;;16.91;40.39;102414.00;5014950;28;20030;-60
2023/01/26 08:40:26;;;;;;;6.47;5.70;;;;;;;16.86;40.22;102406.25;5020197;28;20028;-60
2023/01/26 08:42:52;;;;;;;8.02;5.95;;;;;;;16.87;40.21;102413.38;5020890;28;20037;-60
2023/01/26 08:45:17;;;;;;;7.10;5.30;;;;;;;16.92;40.30;102419.22;5018756;28;20026;-60
2023/01/26 08:47:42;;;;;;;7.55;5.75;;;;;;;16.92;40.69;102421.91;5025914;28;20048;-57
2023/01/26 08:50:09;;;;;;;6.03;5.20;;;;;;;16.88;40.74;102420.44;5012685;28;20073;-62
2023/01/26 08:52:34;;;;;;;6.10;5.40;;;;;;;16.93;40.65;102420.94;5022892;28;20034;-60
2023/01/26 08:55:00;;;;;;;6.20;5.20;;;;;;;16.92;40.47;102421.91;5010445;28;20032;-62
2023/01/26 08:57:26;;;;;;;5.80;5.07;;;;;;;16.89;40.81;102413.25;5024521;28;20041;-60
2023/01/26 08:59:51;;;;;;;7.00;5.82;;;;;;;16.93;40.49;102423.63;5015943;28;20033;-59
2023/01/26 09:02:16;;;;;;;8.13;5.65;;;;;;;16.80;40.48;102403.22;5021005;28;20041;-61
2023/01/26 09:04:41;;;;;;;6.78;5.45;;;;;;;16.98;40.64;102434.88;5023553;28;20084;-58
2023/01/26 09:07:07;;;;;;;6.28;5.22;;;;;;;16.99;40.73;102435.72;5011325;28;20026;-58
2023/01/26 09:09:32;;;;;;;6.38;5.50;;;;;;;16.97;40.67;102427.78;5023146;28;20041;-61
2023/01/26 09:11:57;;;;;;;8.32;6.38;;;;;;;16.93;40.55;102423.63;5014602;28;20037;-60
2023/01/26 09:14:23;;;;;;;7.03;6.10;;;;;;;16.98;40.65;102432.19;5021544;28;20045;-61
2023/01/26 09:16:48;;;;;;;7.78;5.85;;;;;;;17.01;40.36;102433.78;5023695;28;20093;-61
2023/01/26 09:19:13;;;;;;;7.07;5.95;;;;;;;16.98;40.44;102428.63;5011768;28;20606;-60
2023/01/26 09:21:39;;;;;;;7.07;5.63;;;;;;;17.04;40.43;102446.13;5012043;28;20436;-60
2023/01/26 09:24:05;;;;;;;6.80;5.68;;;;;;;17.04;40.21;102438.94;5018784;28;20252;-60
2023/01/26 09:26:30;;;;;;;8.55;6.53;;;;;;;17.04;40.44;102436.25;5025949;28;20036;-61
2023/01/26 09:28:56;;;;;;;8.73;6.22;;;;;;;17.06;40.14;102433.44;5009277;28;20026;-58
2023/01/26 09:31:21;;;;;;;8.10;5.88;;;;;;;16.99;40.13;102420.47;5018732;28;20053;-57
2023/01/26 09:33:48;;;;;;;8.27;6.38;;;;;;;17.06;40.23;102431.59;5015836;28;20065;-59
2023/01/26 09:36:13;;;;;;;9.07;6.15;;;;;;;17.04;40.28;102425.50;5020971;28;20103;-61
2023/01/26 09:38:39;;;;;;;7.38;5.75;;;;;;;17.05;40.15;102429.88;5024789;28;20516;-62
2023/01/26 09:41:10;;;;;;;8.50;6.50;;;;;;;17.09;40.18;102434.03;5008588;28;20049;-60
2023/01/26 09:43:41;;;;;;;9.07;6.93;;;;;;;17.09;40.23;102425.97;5015711;28;20066;-57
2023/01/26 09:46:21;;;;;;;8.55;6.47;;;;;;;17.10;40.07;102430.38;5019990;28;20051;-59
2023/01/26 09:49:00;;;;;;;9.43;7.35;;;;;;;17.10;40.11;102440.28;5023553;28;20033;-59
2023/01/26 09:51:39;;;;;;;8.80;6.20;;;;;;;17.10;40.29;102435.75;5024379;28;20030;-57
2023/01/26 09:54:09;;;;;;;11.50;7.57;;;;;;;17.04;40.14;102430.88;4995171;28;20050;-61
2023/01/26 09:56:34;;;;;;;9.63;6.30;;;;;;;17.09;40.12;102447.47;5021948;28;20060;-60
2023/01/26 09:59:18;;;;;;;8.60;6.20;;;;;;;17.10;40.23;102451.88;5008380;28;20026;-59
2023/01/26 10:02:04;;;;;;;8.68;6.68;;;;;;;17.11;40.24;102450.03;5015412;28;20023;-59
2023/01/26 10:04:35;;;;;;;8.02;5.82;;;;;;;17.10;40.06;102445.66;5003982;28;20030;-60
2023/01/26 10:07:04;;;;;;;8.27;6.20;;;;;;;17.11;40.16;102448.19;4992093;28;20026;-60
2023/01/26 10:09:33;;;;;;;8.65;6.78;;;;;;;17.13;40.09;102457.03;5014063;28;20071;-59
2023/01/26 10:12:06;;;;;;;8.63;6.60;;;;;;;17.15;39.92;102446.13;5003529;28;20501;-58
2023/01/26 10:14:35;;;;;;;8.63;6.38;;;;;;;17.18;40.10;102453.97;5002059;28;20398;-58
2023/01/26 10:17:03;;;;;;;9.40;6.35;;;;;;;17.20;39.93;102454.69;5013415;28;20021;-59
2023/01/26 10:19:50;;;;;;;9.05;6.72;;;;;;;17.22;40.13;102452.75;5002771;28;20098;-55
2023/01/26 10:22:23;;;;;;;7.47;6.00;;;;;;;17.23;40.10;102452.63;5023835;28;20029;-52
2023/01/26 10:24:49;;;;;;;8.82;6.75;;;;;;;17.24;40.33;102442.72;5021791;28;20033;-58
2023/01/26 10:27:15;;;;;;;8.90;6.25;;;;;;;17.25;40.39;102439.09;5018681;28;20371;-52
2023/01/26 10:29:40;;;;;;;6.90;5.80;;;;;;;17.29;40.14;102454.00;5016720;28;20045;-57
2023/01/26 10:32:13;;;;;;;7.85;6.05;;;;;;;17.30;40.34;102453.03;5019659;28;20681;-61
2023/01/26 10:34:39;;;;;;;8.48;6.07;;;;;;;17.32;39.95;102447.50;5021697;28;20062;-59
2023/01/26 10:37:19;;;;;;;8.13;5.78;;;;;;;17.34;40.33;102446.41;5024116;28;20057;-58
2023/01/26 10:40:02;;;;;;;7.65;6.10;;;;;;;17.35;40.13;102439.22;5023307;28;20085;-60
2023/01/26 10:42:32;;;;;;;6.88;6.15;;;;;;;17.35;40.13;102445.44;5013520;28;20045;-60
2023/01/26 10:45:00;;;;;;;8.13;6.65;;;;;;;17.34;40.17;102440.19;5022098;28;20037;-59
2023/01/26 10:47:26;;;;;;;8.75;6.45;;;;;;;17.35;40.27;102440.06;4999783;28;20030;-59
2023/01/26 10:49:51;;;;;;;8.30;6.32;;;;;;;17.36;40.32;102441.75;5015414;28;20037;-59
2023/01/26 10:52:22;;;;;;;8.02;6.22;;;;;;;17.36;40.65;102435.53;5023401;28;20471;-59
2023/01/26 10:54:48;;;;;;;6.78;5.47;;;;;;;17.35;40.32;102439.22;5022366;28;20038;-59
2023/01/26 10:57:17;;;;;;;9.30;6.30;;;;;;;17.33;40.37;102439.34;5010479;28;20030;-60
2023/01/26 10:59:49;;;;;;;7.70;6.15;;;;;;;17.33;40.20;102422.31;4997500;28;20026;-60
2023/01/26 11:02:14;;;;;;;8.63;6.53;;;;;;;17.37;40.22;102431.88;5018645;28;20042;-60
2023/01/26 11:04:40;;;;;;;8.95;6.32;;;;;;;17.37;40.49;102438.09;5022278;28;20022;-59
2023/01/26 11:07:26;;;;;;;7.95;6.30;;;;;;;17.38;40.51;102441.66;5002580;28;20026;-60
2023/01/26 11:09:52;;;;;;;7.25;5.60;;;;;;;17.38;40.35;102438.97;5012003;28;20018;-59
2023/01/26 11:12:19;;;;;;;8.32;6.15;;;;;;;17.38;40.50;102437.13;5005735;28;20072;-59
2023/01/26 11:15:02;;;;;;;7.78;5.82;;;;;;;17.41;40.35;102436.88;5016768;28;20022;-59
2023/01/26 11:17:40;;;;;;;7.47;6.40;;;;;;;17.42;40.52;102438.59;5023697;28;20060;-59
2023/01/26 11:20:25;;;;;;;7.63;6.03;;;;;;;17.43;40.41;102443.00;5005845;28;20056;-59
2023/01/26 11:23:24;;;;;;;7.97;6.13;;;;;;;17.46;40.73;102439.22;5020820;28;20017;-58
2023/01/26 11:26:06;;;;;;;8.77;6.32;;;;;;;17.43;40.74;102431.41;5009444;28;20041;-58
2023/01/26 11:28:36;;;;;;;7.22;5.40;;;;;;;17.52;40.76;102440.56;5023338;28;20383;-59
2023/01/26 11:31:31;;;;;;;8.07;5.95;;;;;;;17.57;40.69;102435.66;5006095;28;20041;-58
2023/01/26 11:33:59;;;;;;;7.22;6.03;;;;;;;17.61;40.65;102429.91;5004695;28;20078;-58
2023/01/26 11:36:38;;;;;;;6.53;5.43;;;;;;;17.64;40.55;102434.22;5016003;28;20057;-58
2023/01/26 11:39:11;;;;;;;7.23;4.87;;;;;;;17.67;40.50;102436.63;4993058;28;20029;-57
2023/01/26 11:42:00;;;;;;;7.80;5.05;;;;;;;17.66;40.83;102430.41;5021304;28;20049;-57
2023/01/26 11:44:49;;;;;;;6.95;5.05;;;;;;;17.66;40.88;102426.84;4985564;28;20095;-55
2023/01/26 11:47:21;;;;;;;6.47;5.13;;;;;;;17.67;40.68;102429.44;5007057;28;20059;-55
2023/01/26 11:49:58;;;;;;;7.07;4.68;;;;;;;17.67;40.97;102428.56;5008936;28;20054;-52
2023/01/26 11:52:56;;;;;;;7.53;4.97;;;;;;;17.69;40.80;102424.78;5026755;28;20040;-56
2023/01/26 11:55:37;;;;;;;7.97;5.55;;;;;;;17.71;40.85;102422.84;5009700;28;20089;-59
2023/01/26 11:58:35;;;;;;;7.05;4.65;;;;;;;17.72;40.88;102434.44;5009415;28;20033;-54
2023/01/26 12:01:06;;;;;;;6.25;4.60;;;;;;;17.74;40.95;102421.75;5001489;28;20039;-56
2023/01/26 12:03:42;;;;;;;6.97;4.90;;;;;;;17.76;40.97;102424.34;5008757;28;20033;-56
2023/01/26 12:06:15;;;;;;;7.05;5.03;;;;;;;17.72;40.99;102407.53;5022704;28;20471;-51
2023/01/26 12:08:44;;;;;;;6.13;4.32;;;;;;;17.78;41.16;102415.13;5024570;28;20022;-60
2023/01/26 12:11:21;;;;;;;6.85;4.63;;;;;;;17.81;40.93;102416.75;5024857;28;20064;-58
2023/01/26 12:14:13;;;;;;;5.95;4.15;;;;;;;17.84;41.12;102411.09;5026577;28;20041;-58
2023/01/26 12:17:16;;;;;;;6.25;4.18;;;;;;;17.84;41.07;102406.59;5012825;28;20088;-57